Time;durP1;ratioP1;P1;durP2;ratioP2;P2;SDS_P1;SDS_P2;PMS_P1;PMS_P2;Temp;Humidity;BMP_temperature;BMP_pressure;BME280_temperature;BME280_humidity;BME280_pressure;Samples;Min_cycle;Max_cycle;Signal;HPM_P1;HPM_P2
2022/11/16 00:01:32;;;;;;;18.33;11.02;;;9.90;99.90;;;;;;5032663;28;20500;-67
2022/11/16 00:03:59;;;;;;;19.92;11.10;;;9.90;99.90;;;;;;5052851;28;20037;-66
2022/11/16 00:06:26;;;;;;;22.83;12.55;;;9.90;99.90;;;;;;5032124;28;20061;-66
2022/11/16 00:11:41;;;;;;;18.38;11.32;;;10.00;99.90;;;;;;5029459;28;20065;-66
2022/11/16 00:14:07;;;;;;;21.63;11.98;;;9.90;99.90;;;;;;5037972;28;20076;-66
2022/11/16 00:16:33;;;;;;;20.38;11.60;;;9.90;99.90;;;;;;5020721;28;20180;-65
2022/11/16 00:19:02;;;;;;;19.98;11.90;;;9.90;99.90;;;;;;5043896;28;20029;-65
2022/11/16 00:21:28;;;;;;;21.20;11.68;;;9.90;99.90;;;;;;5036329;28;20041;-67
2022/11/16 00:23:54;;;;;;;19.08;11.35;;;9.90;99.90;;;;;;5031667;28;20038;-66
2022/11/16 00:26:20;;;;;;;19.67;11.88;;;10.00;99.90;;;;;;5029827;28;20667;-65
2022/11/16 00:28:46;;;;;;;21.42;11.68;;;9.90;99.90;;;;;;5030916;28;20075;-65
2022/11/16 00:31:12;;;;;;;22.30;11.73;;;10.00;99.90;;;;;;5016074;28;20073;-65
2022/11/16 00:33:38;;;;;;;20.17;10.82;;;9.90;99.90;;;;;;5045642;28;20091;-66
2022/11/16 00:36:06;;;;;;;19.13;10.98;;;9.90;99.90;;;;;;5039333;28;20040;-66
2022/11/16 00:38:32;;;;;;;16.73;10.73;;;9.90;99.90;;;;;;5034585;28;20034;-65
2022/11/16 00:40:58;;;;;;;18.70;11.93;;;9.90;99.90;;;;;;5046474;28;20037;-66
2022/11/16 00:43:24;;;;;;;18.42;11.25;;;10.00;99.90;;;;;;5030663;28;20547;-66
2022/11/16 00:45:50;;;;;;;20.58;11.45;;;10.00;99.90;;;;;;5033384;28;20148;-66
2022/11/16 00:48:15;;;;;;;20.13;11.75;;;10.00;99.90;;;;;;5030773;28;20456;-66
2022/11/16 00:50:42;;;;;;;18.35;11.43;;;9.90;99.90;;;;;;5032783;28;20465;-66
2022/11/16 00:53:12;;;;;;;19.15;11.27;;;9.90;99.90;;;;;;5029389;28;20116;-67
2022/11/16 00:55:37;;;;;;;19.25;11.05;;;10.00;99.90;;;;;;5020227;28;20938;-65
2022/11/16 00:58:03;;;;;;;20.25;11.77;;;10.00;99.90;;;;;;5035340;28;20049;-65
2022/11/16 01:00:29;;;;;;;19.33;11.50;;;10.00;99.90;;;;;;5030490;28;20040;-67
2022/11/16 01:02:55;;;;;;;17.42;11.00;;;10.00;99.90;;;;;;5014994;28;20037;-65
2022/11/16 01:05:22;;;;;;;20.27;11.57;;;10.00;99.90;;;;;;5037321;28;20114;-65
2022/11/16 01:07:48;;;;;;;22.75;11.77;;;10.00;99.90;;;;;;5034221;28;20128;-64
2022/11/16 01:10:16;;;;;;;20.13;10.80;;;10.00;99.90;;;;;;5028630;28;20149;-66
2022/11/16 01:12:41;;;;;;;19.60;11.30;;;10.00;99.90;;;;;;5029508;28;20037;-65
2022/11/16 01:15:08;;;;;;;20.13;10.98;;;10.00;99.90;;;;;;5036789;28;20047;-65
2022/11/16 01:17:35;;;;;;;17.25;10.48;;;10.00;99.90;;;;;;5032059;28;20048;-65
2022/11/16 01:20:01;;;;;;;20.05;10.55;;;10.10;99.90;;;;;;5032465;28;20047;-64
2022/11/16 01:22:27;;;;;;;19.52;10.30;;;10.10;99.90;;;;;;5041158;28;20083;-66
2022/11/16 01:24:52;;;;;;;18.15;10.38;;;10.10;99.90;;;;;;5025374;28;20041;-67
2022/11/16 01:27:18;;;;;;;18.80;10.02;;;10.10;99.90;;;;;;5041294;28;20045;-65
2022/11/16 01:29:44;;;;;;;17.33;9.52;;;10.10;99.90;;;;;;5032856;28;20038;-65
2022/11/16 01:32:09;;;;;;;17.67;9.98;;;10.10;99.90;;;;;;5029023;28;20037;-65
2022/11/16 01:34:35;;;;;;;18.10;10.05;;;10.10;99.90;;;;;;5028735;28;20091;-65
2022/11/16 01:37:01;;;;;;;17.05;10.70;;;10.10;99.90;;;;;;5028456;28;20036;-67
2022/11/16 01:39:26;;;;;;;16.17;10.07;;;10.10;99.90;;;;;;5029128;28;20143;-65
2022/11/16 01:41:52;;;;;;;19.40;10.57;;;10.10;99.90;;;;;;5027675;28;20042;-66
2022/11/16 01:44:32;;;;;;;17.88;11.02;;;10.10;99.90;;;;;;5029502;28;20639;-66
2022/11/16 01:46:59;;;;;;;16.15;9.20;;;10.20;99.90;;;;;;5029602;28;20049;-66
2022/11/16 01:49:29;;;;;;;16.85;10.05;;;10.10;99.90;;;;;;5026434;28;20535;-66
2022/11/16 01:51:59;;;;;;;18.80;10.35;;;10.20;99.90;;;;;;5027837;28;20083;-66
2022/11/16 01:54:26;;;;;;;16.15;9.02;;;10.20;99.90;;;;;;5033621;28;20072;-67
2022/11/16 01:56:53;;;;;;;20.83;10.35;;;10.20;99.90;;;;;;5030799;28;20048;-67
2022/11/16 01:59:19;;;;;;;17.88;9.07;;;10.20;99.90;;;;;;5028348;28;20661;-67
2022/11/16 02:01:44;;;;;;;13.57;8.98;;;10.20;99.90;;;;;;5041436;28;20059;-67
2022/11/16 02:04:11;;;;;;;15.32;9.52;;;10.20;99.90;;;;;;5030440;28;20063;-67
2022/11/16 02:06:59;;;;;;;15.70;9.90;;;10.20;99.90;;;;;;5026176;28;20073;-67
2022/11/16 02:10:03;;;;;;;16.27;7.70;;;10.20;99.90;;;;;;5035312;28;20059;-67
2022/11/16 02:12:39;;;;;;;21.55;10.40;;;10.20;99.90;;;;;;5025817;28;20056;-67
2022/11/16 02:15:40;;;;;;;20.98;9.75;;;10.20;99.90;;;;;;5025740;28;20044;-68
2022/11/16 02:18:50;;;;;;;15.15;8.48;;;10.20;99.90;;;;;;5014358;28;20029;-68
2022/11/16 02:21:32;;;;;;;18.95;9.30;;;10.20;99.90;;;;;;5014489;28;20068;-67
2022/11/16 02:24:16;;;;;;;18.73;10.55;;;10.20;99.90;;;;;;5022406;28;20033;-69
2022/11/16 02:27:10;;;;;;;14.75;8.88;;;10.20;99.90;;;;;;5016748;28;20064;-66
2022/11/16 02:29:50;;;;;;;18.08;9.50;;;10.20;99.90;;;;;;5027251;28;20045;-67
2022/11/16 02:32:24;;;;;;;18.88;10.60;;;10.20;99.90;;;;;;5046127;28;20385;-67
2022/11/16 02:34:53;;;;;;;17.17;10.30;;;10.20;99.90;;;;;;5031395;28;20088;-68
2022/11/16 02:37:22;;;;;;;17.55;10.15;;;10.20;99.90;;;;;;5050579;28;20124;-68
2022/11/16 02:39:53;;;;;;;18.73;10.23;;;10.20;99.90;;;;;;5028363;28;20075;-67
2022/11/16 02:42:24;;;;;;;18.85;9.93;;;10.20;99.90;;;;;;5029760;28;20057;-66
2022/11/16 02:44:53;;;;;;;16.65;9.88;;;10.20;99.90;;;;;;5032150;28;20045;-68
2022/11/16 02:47:23;;;;;;;13.25;8.50;;;10.20;99.90;;;;;;5030541;28;20572;-66
2022/11/16 02:49:58;;;;;;;17.58;10.20;;;10.20;99.90;;;;;;5027148;28;20103;-67
2022/11/16 02:52:26;;;;;;;17.45;9.98;;;10.20;99.90;;;;;;5028124;28;20082;-67
2022/11/16 02:54:51;;;;;;;17.17;10.45;;;10.20;99.90;;;;;;5029274;28;20041;-69
2022/11/16 02:57:56;;;;;;;18.45;10.45;;;10.20;99.90;;;;;;5011009;28;20042;-67
2022/11/16 03:00:35;;;;;;;16.35;9.10;;;10.20;99.90;;;;;;5016871;28;20103;-68
2022/11/16 03:03:03;;;;;;;20.55;10.05;;;10.20;99.90;;;;;;5024615;28;20064;-67
2022/11/16 03:05:43;;;;;;;20.17;10.57;;;10.20;99.90;;;;;;5016867;28;20057;-66
2022/11/16 03:08:18;;;;;;;19.40;9.95;;;10.20;99.90;;;;;;5027840;28;20049;-68
2022/11/16 03:13:54;;;;;;;17.05;9.50;;;10.20;99.90;;;;;;5008021;28;20152;-66
2022/11/16 03:16:30;;;;;;;19.23;9.95;;;10.20;99.90;;;;;;5033071;28;20072;-68
2022/11/16 03:19:00;;;;;;;17.77;9.32;;;10.10;99.90;;;;;;5024765;28;20450;-67
2022/11/16 03:21:26;;;;;;;;;;;10.20;99.90;;;;;;5043642;28;20501;-67
2022/11/16 03:23:52;;;;;;;21.48;10.55;;;10.20;99.90;;;;;;5024433;28;19971;-67
2022/11/16 03:26:21;;;;;;;19.98;10.23;;;10.10;99.90;;;;;;5028301;28;20037;-67
2022/11/16 03:28:56;;;;;;;19.73;10.87;;;10.10;99.90;;;;;;5026531;28;20042;-69
2022/11/16 03:31:33;;;;;;;20.73;10.80;;;10.10;99.90;;;;;;5033120;28;20044;-67
2022/11/16 03:34:04;;;;;;;18.63;10.77;;;10.10;99.90;;;;;;5039374;28;20406;-68
2022/11/16 03:36:33;;;;;;;22.55;11.95;;;10.10;99.90;;;;;;5026405;28;20486;-67
2022/11/16 03:39:04;;;;;;;22.08;10.90;;;10.10;99.90;;;;;;5030072;28;20481;-68
2022/11/16 03:41:31;;;;;;;24.25;11.18;;;10.20;99.90;;;;;;5027753;28;20039;-69
2022/11/16 03:43:58;;;;;;;18.40;10.23;;;10.20;99.90;;;;;;5029216;28;20042;-67
2022/11/16 03:46:24;;;;;;;20.35;11.25;;;10.10;99.90;;;;;;5030581;28;20049;-67
2022/11/16 03:48:56;;;;;;;25.13;11.35;;;10.10;99.90;;;;;;5037249;28;20042;-68
2022/11/16 03:51:22;;;;;;;26.58;12.35;;;10.10;99.90;;;;;;5031197;28;20048;-67
2022/11/16 03:53:47;;;;;;;23.75;12.88;;;10.00;99.90;;;;;;5042415;28;20074;-68
2022/11/16 03:56:13;;;;;;;22.80;11.43;;;10.10;99.90;;;;;;5032269;28;20060;-68
2022/11/16 03:58:39;;;;;;;24.42;11.35;;;10.10;99.90;;;;;;5036605;28;20179;-67
2022/11/16 04:01:04;;;;;;;22.17;12.27;;;10.10;99.90;;;;;;5031637;28;20500;-70
2022/11/16 04:03:30;;;;;;;25.35;12.75;;;10.20;99.90;;;;;;5030008;28;20131;-69
2022/11/16 04:25:30;;;;;;;27.95;13.98;;;10.00;99.90;;;;;;5043341;28;20086;-65
2022/11/16 04:28:12;;;;;;;28.10;14.10;;;10.20;99.90;;;;;;5030625;28;20040;-66
2022/11/16 04:38:53;;;;;;;33.20;14.55;;;10.10;99.90;;;;;;5034980;28;20041;-68
2022/11/16 04:44:03;;;;;;;33.13;15.05;;;10.10;99.90;;;;;;5029624;28;20405;-68
2022/11/16 04:49:13;;;;;;;36.78;16.33;;;10.00;99.90;;;;;;5030890;28;20046;-68
2022/11/16 04:51:38;;;;;;;28.90;14.77;;;9.90;99.90;;;;;;5029879;28;20033;-66
2022/11/16 04:54:04;;;;;;;36.30;15.93;;;10.00;99.90;;;;;;5038866;28;20111;-65
2022/11/16 04:56:29;;;;;;;40.35;16.42;;;10.00;99.90;;;;;;5031944;28;20132;-66
2022/11/16 04:58:55;;;;;;;40.28;16.98;;;10.10;99.90;;;;;;5035303;28;20068;-65
2022/11/16 05:02:06;;;;;;;35.70;16.55;;;9.90;99.90;;;;;;5031525;28;20033;-67
2022/11/16 05:04:06;;;;;;;31.55;16.02;;;10.00;99.90;;;;;;5035178;28;20056;-67
2022/11/16 05:06:32;;;;;;;35.15;16.27;;;9.90;99.90;;;;;;5047267;28;20057;-66
2022/11/16 05:08:57;;;;;;;38.33;16.60;;;9.80;99.90;;;;;;5030149;28;20041;-67
2022/11/16 05:11:23;;;;;;;48.88;18.40;;;9.90;99.90;;;;;;5027668;28;20041;-66
2022/11/16 05:13:48;;;;;;;31.42;16.52;;;10.10;99.90;;;;;;5035505;28;20124;-66
2022/11/16 05:16:14;;;;;;;41.50;17.73;;;10.00;99.90;;;;;;5028315;28;20402;-66
2022/11/16 05:18:39;;;;;;;43.17;18.10;;;10.10;99.90;;;;;;5047999;28;20473;-67
2022/11/16 05:21:05;;;;;;;39.35;18.42;;;10.10;99.90;;;;;;5027380;28;20726;-67
2022/11/16 05:26:18;;;;;;;35.53;16.83;;;10.00;99.90;;;;;;5034102;28;20435;-65
2022/11/16 05:28:45;;;;;;;37.90;19.15;;;9.90;99.90;;;;;;5036819;28;20064;-67
2022/11/16 05:31:11;;;;;;;52.25;20.05;;;9.90;99.90;;;;;;5031794;28;20049;-66
2022/11/16 05:33:36;;;;;;;40.10;18.73;;;10.10;99.90;;;;;;5008345;28;20096;-66
2022/11/16 05:36:03;;;;;;;45.30;20.88;;;10.00;99.90;;;;;;5006053;28;20041;-66
2022/11/16 05:38:28;;;;;;;41.25;19.38;;;10.00;99.90;;;;;;5025997;28;20193;-67
2022/11/16 05:40:54;;;;;;;45.83;20.17;;;10.00;99.90;;;;;;5043264;28;20533;-67
2022/11/16 05:43:19;;;;;;;43.80;19.95;;;9.90;99.90;;;;;;5011458;28;20370;-66
2022/11/16 05:45:45;;;;;;;40.50;19.98;;;10.00;99.90;;;;;;5033934;28;20037;-67
2022/11/16 05:48:10;;;;;;;37.75;18.65;;;10.00;99.90;;;;;;5027206;28;20041;-67
2022/11/16 05:50:36;;;;;;;48.08;20.67;;;10.20;99.90;;;;;;5030343;28;20044;-66
2022/11/16 05:53:01;;;;;;;36.55;18.02;;;10.10;99.90;;;;;;5044407;28;20048;-67
2022/11/16 05:55:27;;;;;;;46.97;20.90;;;10.00;99.90;;;;;;5036259;28;20060;-66
2022/11/16 05:57:53;;;;;;;47.60;20.75;;;10.10;99.90;;;;;;5015674;28;20079;-65
2022/11/16 06:00:19;;;;;;;43.53;20.40;;;10.10;99.90;;;;;;5037502;28;20409;-66
2022/11/16 06:02:44;;;;;;;46.78;21.13;;;10.10;99.90;;;;;;5038202;28;20029;-65
2022/11/16 06:05:10;;;;;;;52.20;21.05;;;10.00;99.90;;;;;;5027688;28;20413;-66
2022/11/16 06:07:35;;;;;;;43.42;19.55;;;9.90;99.90;;;;;;5033153;28;20048;-66
2022/11/16 06:10:01;;;;;;;47.45;20.55;;;10.10;99.90;;;;;;5030101;28;20690;-65
2022/11/16 06:12:27;;;;;;;41.05;20.60;;;10.10;99.90;;;;;;5026926;28;20500;-66
2022/11/16 06:14:52;;;;;;;42.08;20.13;;;10.00;99.90;;;;;;5029942;28;20049;-67
2022/11/16 06:17:18;;;;;;;45.20;20.10;;;10.10;99.90;;;;;;5030557;28;20037;-65
2022/11/16 06:19:43;;;;;;;45.63;20.95;;;10.00;99.90;;;;;;5028485;28;20043;-66
2022/11/16 06:22:09;;;;;;;49.00;22.52;;;10.00;99.90;;;;;;5035934;28;20052;-65
2022/11/16 06:24:34;;;;;;;59.95;22.45;;;9.90;99.90;;;;;;5026846;28;20045;-65
2022/11/16 06:27:00;;;;;;;49.90;21.30;;;10.10;99.90;;;;;;5022857;28;20382;-65
2022/11/16 06:29:25;;;;;;;45.00;20.85;;;10.10;99.90;;;;;;5025884;28;20390;-65
2022/11/16 06:31:51;;;;;;;56.63;21.90;;;10.00;99.90;;;;;;5028521;28;20402;-66
2022/11/16 06:34:17;;;;;;;43.03;19.48;;;10.00;99.90;;;;;;5010943;28;20052;-65
2022/11/16 06:36:42;;;;;;;44.53;19.75;;;10.00;99.90;;;;;;5036837;28;20131;-66
2022/11/16 06:39:10;;;;;;;50.47;19.48;;;10.10;99.90;;;;;;5039761;28;20037;-66
2022/11/16 06:41:35;;;;;;;37.50;18.65;;;10.10;99.90;;;;;;5026278;28;20116;-65
2022/11/16 06:44:01;;;;;;;52.70;20.13;;;10.10;99.90;;;;;;5027943;28;20124;-66
2022/11/16 06:46:26;;;;;;;51.33;20.25;;;9.90;99.90;;;;;;5027943;28;20073;-66
2022/11/16 06:48:52;;;;;;;52.80;20.38;;;10.20;99.90;;;;;;5029204;28;20034;-66
2022/11/16 06:51:17;;;;;;;46.58;19.58;;;10.10;99.90;;;;;;5028129;28;20049;-67
2022/11/16 06:53:43;;;;;;;46.75;19.10;;;10.00;99.90;;;;;;5026385;28;20183;-66
2022/11/16 06:56:12;;;;;;;44.20;19.67;;;10.10;99.90;;;;;;5012856;28;20052;-66
2022/11/16 06:58:37;;;;;;;45.58;18.67;;;10.10;99.90;;;;;;5039212;28;20522;-67
2022/11/16 07:01:08;;;;;;;59.35;21.05;;;10.00;99.90;;;;;;5034493;28;20033;-67
2022/11/16 07:03:33;;;;;;;53.63;21.73;;;10.20;99.90;;;;;;5036741;28;20033;-67
2022/11/16 07:06:03;;;;;;;57.75;21.48;;;10.20;99.90;;;;;;5030130;28;20191;-67
2022/11/16 07:08:29;;;;;;;43.55;18.70;;;10.10;99.90;;;;;;5026659;28;20994;-67
2022/11/16 07:10:54;;;;;;;44.58;18.42;;;10.10;99.90;;;;;;5044315;28;20048;-67
2022/11/16 07:13:20;;;;;;;38.92;17.73;;;10.20;99.90;;;;;;5025807;28;20844;-66
2022/11/16 07:15:45;;;;;;;51.20;19.33;;;10.10;99.90;;;;;;5037254;28;20435;-67
2022/11/16 07:18:11;;;;;;;42.25;18.60;;;10.00;99.90;;;;;;5032045;28;20045;-67
2022/11/16 07:20:37;;;;;;;52.03;20.08;;;10.10;99.90;;;;;;5031522;28;20381;-67
2022/11/16 07:23:03;;;;;;;48.15;19.00;;;10.20;99.90;;;;;;5047613;28;20401;-67
2022/11/16 07:25:31;;;;;;;41.78;17.63;;;10.20;99.90;;;;;;5036210;28;20064;-66
2022/11/16 07:27:57;;;;;;;39.30;17.42;;;10.00;99.90;;;;;;5047448;28;20134;-68
2022/11/16 07:30:23;;;;;;;37.47;17.33;;;10.10;99.90;;;;;;5034733;28;20087;-67
2022/11/16 07:32:48;;;;;;;40.70;18.13;;;10.10;99.90;;;;;;5034950;28;20053;-66
2022/11/16 07:35:14;;;;;;;33.15;16.73;;;10.00;99.90;;;;;;5063500;28;20432;-67
2022/11/16 07:37:40;;;;;;;38.88;17.48;;;10.00;99.90;;;;;;5056034;28;20041;-67
2022/11/16 07:40:06;;;;;;;38.60;17.55;;;10.10;99.90;;;;;;5044750;28;20029;-67
2022/11/16 07:42:32;;;;;;;41.45;17.92;;;10.00;99.90;;;;;;5051815;28;20392;-66
2022/11/16 07:44:57;;;;;;;46.03;18.10;;;10.20;99.90;;;;;;5054747;28;20045;-66
2022/11/16 07:47:23;;;;;;;35.28;16.23;;;9.90;99.90;;;;;;5051225;28;20362;-66
2022/11/16 07:49:48;;;;;;;37.85;17.42;;;9.90;99.90;;;;;;5051341;28;20610;-67
2022/11/16 07:52:14;;;;;;;40.45;16.85;;;10.00;99.90;;;;;;5033000;28;20033;-66
2022/11/16 07:54:40;;;;;;;40.40;16.13;;;10.00;99.90;;;;;;5032482;28;20049;-65
2022/11/16 07:57:05;;;;;;;30.13;15.50;;;10.00;99.90;;;;;;5037794;28;20080;-66
2022/11/16 07:59:31;;;;;;;39.40;15.68;;;9.90;99.90;;;;;;5052180;28;20037;-65
2022/11/16 08:01:57;;;;;;;42.95;16.52;;;10.00;99.90;;;;;;5045940;28;20073;-66
2022/11/16 08:04:23;;;;;;;42.08;16.20;;;10.00;99.90;;;;;;5032251;28;20042;-65
2022/11/16 08:06:50;;;;;;;28.58;15.40;;;10.10;99.90;;;;;;5016799;28;20111;-66
2022/11/16 08:09:16;;;;;;;30.48;15.43;;;9.90;99.90;;;;;;5034000;28;20084;-66
2022/11/16 08:11:41;;;;;;;35.33;14.90;;;10.10;99.90;;;;;;5036547;28;20077;-66
2022/11/16 08:14:07;;;;;;;34.90;15.65;;;10.00;99.90;;;;;;5032185;28;20050;-67
2022/11/16 08:16:33;;;;;;;41.28;15.75;;;9.80;99.90;;;;;;5031258;28;20043;-66
2022/11/16 08:18:59;;;;;;;40.05;16.90;;;9.80;99.90;;;;;;5051747;28;20127;-67
2022/11/16 08:21:25;;;;;;;33.85;15.70;;;9.90;99.90;;;;;;5049433;28;20052;-67
2022/11/16 08:23:51;;;;;;;30.17;15.30;;;10.00;99.90;;;;;;5046815;28;20049;-67
2022/11/16 08:26:18;;;;;;;38.75;16.40;;;10.00;99.90;;;;;;5040384;28;20406;-66
2022/11/16 08:28:46;;;;;;;36.63;16.25;;;9.90;99.90;;;;;;5050036;28;20495;-65
2022/11/16 08:31:15;;;;;;;43.50;18.67;;;10.10;99.90;;;;;;5054797;28;20053;-66
2022/11/16 08:33:40;;;;;;;44.63;18.80;;;9.80;99.90;;;;;;5058382;28;20077;-66
2022/11/16 08:36:08;;;;;;;41.25;18.90;;;9.90;99.90;;;;;;5035398;28;20076;-66
2022/11/16 08:38:34;;;;;;;54.78;20.48;;;10.00;99.90;;;;;;5033129;28;20037;-66
2022/11/16 08:40:59;;;;;;;43.72;20.02;;;9.90;99.90;;;;;;5044933;28;20453;-65
2022/11/16 08:43:25;;;;;;;40.72;20.50;;;10.00;99.90;;;;;;5043695;28;20045;-65
2022/11/16 08:45:52;;;;;;;49.13;21.77;;;10.20;99.90;;;;;;5039477;28;20401;-66
2022/11/16 08:48:18;;;;;;;49.00;22.25;;;9.90;99.90;;;;;;5052287;28;20037;-66
2022/11/16 08:50:44;;;;;;;53.45;24.02;;;10.00;99.90;;;;;;5038336;28;20493;-66
2022/11/16 08:53:09;;;;;;;46.20;21.48;;;10.20;99.90;;;;;;5036611;28;20076;-65
2022/11/16 08:55:35;;;;;;;65.35;24.58;;;10.20;99.90;;;;;;5044794;28;20040;-65
2022/11/16 08:58:01;;;;;;;53.80;23.00;;;10.30;99.90;;;;;;5050365;28;20477;-65
2022/11/16 09:00:27;;;;;;;68.70;25.98;;;10.00;99.90;;;;;;5047034;28;20037;-66
2022/11/16 09:02:52;;;;;;;58.78;23.92;;;10.20;99.90;;;;;;5045492;28;20070;-66
2022/11/16 09:05:18;;;;;;;53.10;24.55;;;10.10;99.90;;;;;;5047578;28;20136;-65
2022/11/16 09:07:44;;;;;;;68.78;25.88;;;10.10;99.90;;;;;;5044257;28;20068;-66
2022/11/16 09:10:11;;;;;;;53.40;23.88;;;10.20;99.90;;;;;;5045128;28;20045;-66
2022/11/16 09:12:37;;;;;;;66.85;25.30;;;10.40;99.90;;;;;;5029971;28;20036;-65
2022/11/16 09:15:04;;;;;;;47.25;22.02;;;10.40;99.90;;;;;;5034549;28;20049;-66
2022/11/16 09:17:30;;;;;;;57.55;25.38;;;10.30;99.90;;;;;;5043536;28;20120;-66
2022/11/16 09:19:56;;;;;;;58.38;25.13;;;10.40;99.90;;;;;;5028374;28;20568;-65
2022/11/16 09:22:21;;;;;;;54.85;24.80;;;10.30;99.90;;;;;;5030526;28;20033;-65
2022/11/16 09:24:47;;;;;;;57.10;24.70;;;10.20;99.90;;;;;;5045748;28;20395;-66
2022/11/16 09:27:13;;;;;;;62.35;25.05;;;10.50;99.90;;;;;;5039102;28;20138;-65
2022/11/16 09:29:39;;;;;;;61.47;25.90;;;10.50;99.90;;;;;;5038168;28;20044;-65
2022/11/16 09:32:05;;;;;;;60.00;25.10;;;10.60;99.90;;;;;;5035280;28;20500;-66
2022/11/16 09:34:33;;;;;;;69.22;26.38;;;10.60;99.90;;;;;;5042223;28;20128;-65
2022/11/16 09:36:59;;;;;;;69.00;25.88;;;10.50;99.90;;;;;;5014348;28;20041;-65
2022/11/16 09:39:26;;;;;;;73.97;28.25;;;10.70;99.90;;;;;;5038315;28;20037;-66
2022/11/16 09:42:20;;;;;;;65.80;25.73;;;10.40;99.90;;;;;;5029884;28;20047;-66
2022/11/16 09:44:57;;;;;;;69.38;26.08;;;10.50;99.90;;;;;;5031522;28;20060;-67
2022/11/16 09:47:50;;;;;;;62.28;26.08;;;10.80;99.90;;;;;;5032306;28;20041;-67
2022/11/16 09:50:27;;;;;;;55.28;24.60;;;10.60;99.90;;;;;;5036456;28;20064;-66
2022/11/16 09:52:57;;;;;;;68.88;27.00;;;10.70;99.90;;;;;;5050364;28;20037;-66
2022/11/16 09:55:25;;;;;;;60.55;25.67;;;10.90;99.90;;;;;;5033401;28;20057;-66
2022/11/16 09:57:54;;;;;;;67.93;27.38;;;10.70;99.90;;;;;;5036204;28;20040;-66
2022/11/16 10:00:22;;;;;;;58.58;26.52;;;10.90;99.90;;;;;;5049311;28;20037;-65
2022/11/16 10:03:05;;;;;;;62.92;26.65;;;10.90;99.90;;;;;;5047992;28;20124;-66
2022/11/16 10:05:43;;;;;;;65.82;26.35;;;10.70;99.90;;;;;;5041808;28;20096;-66
2022/11/16 10:08:20;;;;;;;50.33;25.10;;;10.90;99.90;;;;;;5036207;28;20044;-65
2022/11/16 10:11:21;;;;;;;64.68;26.38;;;10.90;99.90;;;;;;5033967;28;20061;-65
2022/11/16 10:14:18;;;;;;;72.20;27.98;;;11.00;99.90;;;;;;5038024;28;20501;-66
2022/11/16 10:17:02;;;;;;;67.22;27.55;;;10.80;99.90;;;;;;5040255;28;20037;-66
2022/11/16 10:19:51;;;;;;;60.35;26.55;;;10.90;99.90;;;;;;5028594;28;20064;-66
2022/11/16 10:22:43;;;;;;;69.38;26.08;;;11.00;99.90;;;;;;5041919;28;20433;-66
2022/11/16 10:25:17;;;;;;;62.42;26.67;;;11.30;99.90;;;;;;5037828;28;20080;-65
2022/11/16 10:28:08;;;;;;;65.50;26.52;;;11.00;99.90;;;;;;5043604;28;20037;-65
2022/11/16 10:31:01;;;;;;;60.30;25.08;;;11.30;99.90;;;;;;5037394;28;20068;-66
2022/11/16 10:33:34;;;;;;;46.30;23.05;;;11.20;99.90;;;;;;5032171;28;20053;-66
2022/11/16 10:36:02;;;;;;;48.53;22.58;;;11.20;99.90;;;;;;5040357;28;20041;-65
2022/11/16 10:38:30;;;;;;;44.10;20.60;;;11.40;99.90;;;;;;5042730;28;20484;-65
2022/11/16 10:41:02;;;;;;;39.95;20.15;;;11.10;99.90;;;;;;5050032;28;20439;-65
2022/11/16 10:43:30;;;;;;;34.92;18.30;;;11.10;99.90;;;;;;5039156;28;20037;-65
2022/11/16 10:46:04;;;;;;;42.90;20.48;;;11.50;99.90;;;;;;5036684;28;20037;-67
2022/11/16 10:48:41;;;;;;;40.10;18.63;;;11.50;99.90;;;;;;5048620;28;20036;-65
2022/11/16 10:51:08;;;;;;;35.50;17.30;;;11.30;99.90;;;;;;5043441;28;20033;-65
2022/11/16 10:53:40;;;;;;;34.88;17.63;;;11.50;99.90;;;;;;5039031;28;20041;-65
2022/11/16 10:56:31;;;;;;;33.00;17.13;;;11.30;99.90;;;;;;5047148;28;20057;-65
2022/11/16 10:59:04;;;;;;;33.15;18.90;;;11.30;99.90;;;;;;5032341;28;20063;-65
2022/11/16 11:01:43;;;;;;;24.50;12.85;;;11.40;99.90;;;;;;5054353;28;20475;-65
2022/11/16 11:04:13;;;;;;;23.20;13.60;;;11.20;99.90;;;;;;5044150;28;20049;-64
2022/11/16 11:06:39;;;;;;;22.88;12.48;;;11.00;99.90;;;;;;5033574;28;20137;-65
2022/11/16 11:09:24;;;;;;;22.85;12.05;;;10.90;99.90;;;;;;5044558;28;20120;-67
2022/11/16 11:15:17;;;;;;;24.13;12.77;;;10.80;99.90;;;;;;5054030;28;20045;-66
2022/11/16 11:17:46;;;;;;;19.90;12.27;;;10.70;99.90;;;;;;5029081;28;20041;-66
2022/11/16 11:20:14;;;;;;;25.35;12.40;;;10.70;99.90;;;;;;5049591;28;20045;-66
2022/11/16 11:23:02;;;;;;;22.98;12.35;;;11.00;99.90;;;;;;5035872;28;20087;-65
2022/11/16 11:25:34;;;;;;;20.70;10.65;;;10.80;99.90;;;;;;5043104;28;20091;-64
2022/11/16 11:28:15;;;;;;;21.33;10.25;;;10.90;99.90;;;;;;5037712;28;20136;-67
2022/11/16 11:30:49;;;;;;;20.27;10.20;;;10.70;99.90;;;;;;5038252;28;20095;-66
2022/11/16 11:33:17;;;;;;;19.67;10.77;;;10.50;99.90;;;;;;5049615;28;20049;-66
2022/11/16 11:35:43;;;;;;;19.15;10.73;;;10.60;99.90;;;;;;5046868;28;20048;-66
2022/11/16 11:38:13;;;;;;;17.88;10.70;;;10.70;99.90;;;;;;5053749;28;20045;-66
2022/11/16 11:40:54;;;;;;;19.02;10.35;;;11.00;99.90;;;;;;5037590;28;20045;-66
2022/11/16 11:43:23;;;;;;;25.65;10.93;;;10.90;99.90;;;;;;5051839;28;20544;-67
2022/11/16 11:46:02;;;;;;;20.45;11.25;;;11.00;99.90;;;;;;5061712;28;20036;-66
2022/11/16 11:48:31;;;;;;;18.40;10.23;;;11.10;99.90;;;;;;5045640;28;20041;-67
2022/11/16 11:51:08;;;;;;;12.90;7.82;;;11.30;99.90;;;;;;5047260;28;20047;-67
2022/11/16 11:53:45;;;;;;;15.73;8.02;;;11.30;99.90;;;;;;5038650;28;20128;-67
2022/11/16 11:56:11;;;;;;;13.73;6.50;;;11.50;99.90;;;;;;5043964;28;20449;-67
2022/11/16 11:58:39;;;;;;;11.15;5.80;;;11.40;99.90;;;;;;5049803;28;20036;-67
2022/11/16 12:01:23;;;;;;;10.82;5.22;;;11.40;99.90;;;;;;5053950;28;20124;-67
2022/11/16 12:04:07;;;;;;;13.30;5.82;;;11.00;99.90;;;;;;5044610;28;20047;-65
2022/11/16 12:06:49;;;;;;;11.77;5.50;;;11.30;99.90;;;;;;5048670;28;20489;-67
2022/11/16 12:09:29;;;;;;;12.02;5.35;;;11.10;99.90;;;;;;5047717;28;20396;-67
2022/11/16 12:12:01;;;;;;;11.85;5.43;;;11.30;99.90;;;;;;5042776;28;20366;-67
2022/11/16 12:14:58;;;;;;;9.82;4.43;;;11.50;99.90;;;;;;5041466;28;20405;-66
2022/11/16 12:17:49;;;;;;;8.35;3.72;;;11.30;99.90;;;;;;5039723;28;20044;-67
2022/11/16 12:20:26;;;;;;;;;;;11.10;99.90;;;;;;5053807;28;20037;-67
2022/11/16 12:23:06;;;;;;;8.88;3.60;;;11.10;99.90;;;;;;5046961;28;19917;-66
2022/11/16 12:26:02;;;;;;;12.65;4.22;;;11.00;99.90;;;;;;5052063;28;20048;-67
2022/11/16 12:28:39;;;;;;;7.40;3.80;;;10.90;99.90;;;;;;5035135;28;20091;-66
2022/11/16 12:31:16;;;;;;;10.07;3.40;;;10.80;99.90;;;;;;5046357;28;20045;-65
2022/11/16 12:33:55;;;;;;;10.02;4.20;;;10.90;99.90;;;;;;5039702;28;20420;-67
2022/11/16 12:36:46;;;;;;;5.95;3.35;;;11.00;99.90;;;;;;5065438;28;20040;-67
2022/11/16 12:39:23;;;;;;;8.77;3.83;;;11.00;99.90;;;;;;5043757;28;20047;-66
2022/11/16 12:42:06;;;;;;;13.02;3.55;;;10.70;99.90;;;;;;5050906;28;20086;-65
2022/11/16 12:45:05;;;;;;;9.43;2.70;;;10.80;99.90;;;;;;5036249;28;20129;-66
2022/11/16 12:47:58;;;;;;;12.85;3.55;;;10.60;99.90;;;;;;5033048;28;20124;-65
2022/11/16 12:50:46;;;;;;;9.52;3.13;;;10.70;99.90;;;;;;5032479;28;20417;-66
2022/11/16 12:53:36;;;;;;;13.88;3.33;;;10.80;99.90;;;;;;5034731;28;20037;-67
2022/11/16 12:56:24;;;;;;;8.57;2.70;;;10.60;99.90;;;;;;5045144;28;20094;-65
2022/11/16 12:59:17;;;;;;;6.45;2.42;;;10.50;99.90;;;;;;5025851;28;20042;-65
2022/11/16 13:01:57;;;;;;;5.38;2.50;;;10.40;99.90;;;;;;5032969;28;20655;-65
2022/11/16 13:04:31;;;;;;;8.57;2.85;;;10.50;99.90;;;;;;5032713;28;20037;-65
2022/11/16 13:07:03;;;;;;;9.35;2.65;;;10.50;99.90;;;;;;5048600;28;20060;-66
2022/11/16 13:09:34;;;;;;;10.05;3.03;;;10.40;99.90;;;;;;5041052;28;20045;-66
2022/11/16 13:12:04;;;;;;;8.73;3.20;;;10.40;99.90;;;;;;5034215;28;20045;-67
2022/11/16 13:14:47;;;;;;;8.98;2.45;;;10.40;99.90;;;;;;5040947;28;20484;-67
2022/11/16 13:17:20;;;;;;;9.15;3.13;;;10.40;99.90;;;;;;5032983;28;20037;-66
2022/11/16 13:19:56;;;;;;;9.18;2.97;;;10.40;99.90;;;;;;5031405;28;20112;-66
2022/11/16 13:22:26;;;;;;;9.73;3.20;;;10.50;99.90;;;;;;5050801;28;20162;-66
2022/11/16 13:25:01;;;;;;;12.70;3.17;;;10.70;99.90;;;;;;5051217;28;20557;-66
2022/11/16 13:27:41;;;;;;;7.93;2.80;;;10.80;99.90;;;;;;5042537;28;20486;-65
2022/11/16 13:30:31;;;;;;;;;;;10.70;99.90;;;;;;5048503;28;20771;-65
2022/11/16 13:33:26;;;;;;;10.10;3.22;;;10.70;99.90;;;;;;5052160;28;19983;-65
2022/11/16 13:35:52;;;;;;;7.57;2.70;;;10.70;99.90;;;;;;5036320;28;20140;-66